Time;durP1;ratioP1;P1;durP2;ratioP2;P2;SDS_P1;SDS_P2;PMS_P1;PMS_P2;Temp;Humidity;BMP_temperature;BMP_pressure;BME280_temperature;BME280_humidity;BME280_pressure;Samples;Min_cycle;Max_cycle;Signal;HPM_P1;HPM_P2
2022/05/10 00:00:27;;;;;;;8.60;1.85;;;;;;;12.77;45.68;94380.66;5083298;28;20031;-80
2022/05/10 00:02:55;;;;;;;5.00;2.13;;;;;;;12.79;45.84;94383.03;5083479;28;20025;-79
2022/05/10 00:05:27;;;;;;;6.97;1.98;;;;;;;12.76;45.92;94378.28;5083328;28;20016;-79
2022/05/10 00:07:55;;;;;;;4.38;1.80;;;;;;;12.75;46.21;94374.84;5083308;28;20020;-79
2022/05/10 00:10:21;;;;;;;8.32;2.13;;;;;;;12.73;47.12;94376.25;5083263;28;20039;-79
2022/05/10 00:12:46;;;;;;;8.85;2.38;;;;;;;12.65;47.85;94373.25;5098859;28;20100;-79
2022/05/10 00:15:12;;;;;;;3.40;1.98;;;;;;;12.65;48.16;94377.81;5083103;28;20017;-79
2022/05/10 00:17:40;;;;;;;6.57;1.92;;;;;;;12.59;47.86;94371.81;5083117;28;20054;-79
2022/05/10 00:20:10;;;;;;;5.15;2.20;;;;;;;12.54;47.95;94372.00;5082822;28;20016;-80
2022/05/10 00:22:36;;;;;;;8.60;2.53;;;;;;;12.52;48.54;94366.16;5083130;28;20032;-79
2022/05/10 00:25:02;;;;;;;6.97;1.98;;;;;;;12.46;48.31;94372.75;5083082;28;20028;-79
2022/05/10 00:27:28;;;;;;;7.28;2.97;;;;;;;12.42;47.83;94369.13;5082961;28;20028;-79
2022/05/10 00:29:53;;;;;;;4.60;2.17;;;;;;;12.42;47.31;94369.13;5083115;28;20016;-79
2022/05/10 00:32:19;;;;;;;7.82;2.17;;;;;;;12.38;48.27;94368.97;5082682;28;20204;-79
2022/05/10 00:34:45;;;;;;;6.40;2.47;;;;;;;12.34;48.21;94375.25;5083008;28;20226;-79
2022/05/10 00:37:12;;;;;;;7.82;2.35;;;;;;;12.35;47.99;94377.59;5064968;28;20284;-79
2022/05/10 00:39:38;;;;;;;7.80;2.92;;;;;;;12.34;47.95;94380.59;5098564;28;20062;-79
2022/05/10 00:42:17;;;;;;;9.02;2.92;;;;;;;12.32;47.74;94366.75;5082839;28;20099;-79
2022/05/10 00:44:58;;;;;;;5.97;2.25;;;;;;;12.30;49.09;94375.09;5082702;28;20020;-79
2022/05/10 00:47:31;;;;;;;10.50;2.40;;;;;;;12.25;48.66;94377.88;5082859;28;20020;-79
2022/05/10 00:50:02;;;;;;;4.80;1.80;;;;;;;12.21;48.14;94377.75;5082674;28;20046;-79
2022/05/10 00:52:39;;;;;;;7.85;2.83;;;;;;;12.18;48.21;94367.66;5082647;28;20033;-79
2022/05/10 00:55:44;;;;;;;3.45;2.10;;;;;;;12.12;48.10;94373.47;5064715;28;20097;-79
2022/05/10 00:58:29;;;;;;;5.22;2.30;;;;;;;12.03;48.57;94370.75;5073503;28;20056;-79
2022/05/10 01:00:55;;;;;;;7.20;2.03;;;;;;;11.95;48.63;94368.84;5086938;28;20265;-79
2022/05/10 01:03:35;;;;;;;12.98;2.25;;;;;;;11.84;48.84;94374.44;5086724;28;20058;-79
2022/05/10 01:06:06;;;;;;;4.43;2.03;;;;;;;11.83;48.89;94372.06;5068712;28;20024;-79
2022/05/10 01:08:42;;;;;;;3.20;1.67;;;;;;;11.75;49.12;94365.59;5086748;28;20062;-79
2022/05/10 01:11:13;;;;;;;10.05;2.45;;;;;;;11.60;49.38;94368.66;5086602;28;20043;-79
2022/05/10 01:13:45;;;;;;;12.20;2.08;;;;;;;11.54;49.87;94372.53;5086709;28;20211;-78
2022/05/10 01:16:14;;;;;;;14.13;3.00;;;;;;;11.51;49.86;94367.81;5086671;28;20396;-79
2022/05/10 01:18:40;;;;;;;6.88;2.47;;;;;;;11.54;50.05;94364.53;5086668;28;20025;-79
2022/05/10 01:21:29;;;;;;;6.18;2.60;;;;;;;11.50;50.25;94359.03;5086664;28;20333;-79
2022/05/10 01:24:03;;;;;;;4.60;2.33;;;;;;;11.50;50.29;94360.91;5047553;28;20135;-79
2022/05/10 01:27:10;;;;;;;8.98;2.40;;;;;;;11.49;50.33;94354.00;5086347;28;20021;-80
2022/05/10 01:29:46;;;;;;;4.15;2.35;;;;;;;11.44;50.55;94360.25;5068073;28;20314;-80
2022/05/10 01:35:07;;;;;;;6.35;2.05;;;;;;;11.48;50.17;94352.41;5086455;28;20023;-80
2022/05/10 01:37:37;;;;;;;6.22;2.13;;;;;;;11.43;51.09;94361.34;5086223;28;20039;-80
2022/05/10 01:40:20;;;;;;;5.05;3.13;;;;;;;11.43;51.40;94351.44;5086289;28;20017;-80
2022/05/10 01:42:51;;;;;;;5.57;2.03;;;;;;;11.44;51.43;94350.38;5086102;28;20107;-80
2022/05/10 01:45:38;;;;;;;10.17;2.53;;;;;;;11.45;51.95;94356.47;5086054;28;20041;-80
2022/05/10 01:48:05;;;;;;;8.05;2.60;;;;;;;11.40;51.99;94360.06;5085970;28;20266;-80
2022/05/10 01:51:25;;;;;;;4.05;2.10;;;;;;;11.44;52.87;94357.59;5067995;28;20024;-80
2022/05/10 01:53:51;;;;;;;10.00;4.32;;;;;;;11.38;52.05;94356.94;5024322;28;20245;-80
2022/05/10 01:56:25;;;;;;;9.65;2.92;;;;;;;11.35;51.75;94354.06;5073130;28;20043;-80
2022/05/10 01:58:53;;;;;;;10.20;2.50;;;;;;;11.34;51.63;94353.28;5085834;28;20234;-80
2022/05/10 02:01:32;;;;;;;8.48;2.80;;;;;;;11.33;51.50;94358.94;5085761;28;20020;-80
2022/05/10 02:03:58;;;;;;;5.38;1.98;;;;;;;11.33;51.60;94354.38;5068000;28;20323;-79
2022/05/10 02:06:35;;;;;;;5.68;2.10;;;;;;;11.30;51.85;94355.00;5086084;28;20100;-79
2022/05/10 02:09:19;;;;;;;7.45;2.75;;;;;;;11.24;52.16;94356.22;5085644;28;20029;-78
2022/05/10 02:12:01;;;;;;;4.10;2.03;;;;;;;11.13;52.81;94354.88;5085191;28;20028;-78
2022/05/10 02:14:30;;;;;;;6.05;2.42;;;;;;;11.12;53.24;94358.66;5085683;28;20054;-80
2022/05/10 02:17:04;;;;;;;5.05;2.58;;;;;;;11.10;53.57;94355.50;5067945;28;20373;-79
2022/05/10 02:19:56;;;;;;;16.38;2.67;;;;;;;11.06;54.00;94351.84;5085389;28;20083;-79
2022/05/10 02:22:53;;;;;;;8.18;2.90;;;;;;;11.03;53.83;94348.72;5078707;28;20074;-79
2022/05/10 02:25:24;;;;;;;6.28;2.65;;;;;;;10.99;53.66;94349.59;5079059;28;20039;-79
2022/05/10 02:28:08;;;;;;;14.40;3.08;;;;;;;10.97;54.15;94352.59;5085251;28;20024;-80
2022/05/10 02:30:35;;;;;;;5.18;2.17;;;;;;;10.92;54.24;94347.34;5085319;28;20052;-79
2022/05/10 02:33:08;;;;;;;9.15;2.65;;;;;;;10.91;54.16;94345.78;5085298;28;20031;-79
2022/05/10 02:35:45;;;;;;;6.05;2.72;;;;;;;10.91;53.44;94351.13;5085249;28;20021;-79
2022/05/10 02:38:14;;;;;;;4.93;2.80;;;;;;;10.87;53.17;94352.00;5085327;28;20219;-79
2022/05/10 02:40:43;;;;;;;4.85;2.47;;;;;;;10.81;53.57;94354.81;5085280;28;20080;-79
2022/05/10 02:43:16;;;;;;;4.97;2.28;;;;;;;10.79;53.61;94358.88;5085196;28;20059;-79
2022/05/10 02:45:42;;;;;;;7.80;2.60;;;;;;;10.77;54.04;94353.84;5084825;28;20024;-79
2022/05/10 02:48:19;;;;;;;7.70;2.70;;;;;;;10.78;54.32;94357.28;5084973;28;20070;-79
2022/05/10 02:50:44;;;;;;;4.25;2.47;;;;;;;10.74;54.80;94353.66;5084880;28;20341;-78
2022/05/10 02:53:10;;;;;;;7.75;3.30;;;;;;;10.70;54.93;94358.00;5084993;28;20028;-78
2022/05/10 02:55:48;;;;;;;7.93;2.75;;;;;;;10.70;55.09;94352.69;5084857;28;20047;-78
2022/05/10 02:58:29;;;;;;;6.82;2.60;;;;;;;10.68;55.36;94352.19;5084800;28;20064;-78
2022/05/10 03:01:03;;;;;;;4.72;2.45;;;;;;;10.65;54.79;94350.91;5084797;28;20025;-79
2022/05/10 03:03:30;;;;;;;5.80;2.70;;;;;;;10.63;55.01;94353.09;5084581;28;20424;-79
2022/05/10 03:05:55;;;;;;;6.05;2.45;;;;;;;10.62;54.57;94354.97;5084767;28;20070;-79
2022/05/10 03:08:22;;;;;;;5.85;2.35;;;;;;;10.62;54.38;94352.31;5084577;28;20020;-79
2022/05/10 03:10:47;;;;;;;6.57;3.08;;;;;;;10.58;54.14;94355.84;5084504;28;20036;-79
2022/05/10 03:13:13;;;;;;;6.25;3.47;;;;;;;10.60;54.15;94348.34;5100132;28;20024;-79
2022/05/10 03:15:39;;;;;;;8.80;3.63;;;;;;;10.59;54.28;94350.22;5084706;28;20036;-79
2022/05/10 03:18:05;;;;;;;7.68;3.00;;;;;;;10.63;54.92;94356.53;5084641;28;20056;-79
2022/05/10 03:20:30;;;;;;;8.80;2.67;;;;;;;10.60;54.80;94357.16;5066308;28;20230;-79
2022/05/10 03:22:56;;;;;;;9.23;2.95;;;;;;;10.60;54.37;94357.16;5083377;28;20031;-79
2022/05/10 03:25:21;;;;;;;6.00;2.70;;;;;;;10.62;54.40;94356.84;5084088;28;20318;-79
2022/05/10 03:27:48;;;;;;;6.70;2.40;;;;;;;10.61;54.21;94357.94;5084059;28;20031;-79
2022/05/10 03:30:14;;;;;;;7.53;2.67;;;;;;;10.60;54.15;94351.03;5084154;28;20215;-78
2022/05/10 03:32:40;;;;;;;6.72;2.20;;;;;;;10.60;54.46;94351.81;5084081;28;20027;-78
2022/05/10 03:35:06;;;;;;;5.57;2.67;;;;;;;10.63;55.05;94359.22;5084002;28;20020;-78
2022/05/10 03:37:32;;;;;;;5.78;2.40;;;;;;;10.62;55.60;94368.31;5084410;28;20258;-78
2022/05/10 03:39:59;;;;;;;9.88;2.50;;;;;;;10.64;55.71;94362.66;5084784;28;20087;-80
2022/05/10 03:42:25;;;;;;;12.60;2.65;;;;;;;10.62;55.54;94360.31;5066102;28;20311;-79
2022/05/10 03:44:52;;;;;;;4.45;2.10;;;;;;;10.64;55.63;94381.31;5065990;28;20035;-79
2022/05/10 03:47:22;;;;;;;7.63;2.65;;;;;;;10.67;55.16;94363.97;5083560;28;20020;-78
2022/05/10 03:49:49;;;;;;;6.70;2.95;;;;;;;10.71;55.42;94375.59;5066085;28;20218;-79
2022/05/10 03:52:15;;;;;;;10.02;3.00;;;;;;;10.71;55.68;94388.94;5083587;28;20020;-79
2022/05/10 03:54:42;;;;;;;5.25;2.78;;;;;;;10.76;55.20;94383.47;5083572;28;20024;-79
2022/05/10 03:57:08;;;;;;;6.20;2.60;;;;;;;10.77;54.95;94380.50;5065641;28;20024;-79
2022/05/10 03:59:33;;;;;;;11.05;3.20;;;;;;;10.81;54.85;94386.81;5083624;28;20104;-79
2022/05/10 04:01:59;;;;;;;16.80;5.60;;;;;;;10.87;54.75;94384.81;5083777;28;20024;-79
2022/05/10 04:04:25;;;;;;;6.68;4.20;;;;;;;10.90;55.22;94391.44;5083567;28;20028;-79
2022/05/10 04:06:50;;;;;;;5.00;2.90;;;;;;;10.94;54.80;94392.41;5083157;28;20020;-79
2022/05/10 04:09:16;;;;;;;6.47;3.10;;;;;;;10.99;53.92;94382.41;5083091;28;20115;-78
2022/05/10 04:11:44;;;;;;;8.10;3.40;;;;;;;11.04;54.21;94398.28;5083152;28;20314;-78
2022/05/10 04:14:09;;;;;;;10.10;2.90;;;;;;;11.11;54.23;94391.72;5083128;28;20019;-78
2022/05/10 04:16:35;;;;;;;16.48;4.25;;;;;;;11.16;53.96;94391.63;5083402;28;20017;-79
2022/05/10 04:19:00;;;;;;;10.40;3.78;;;;;;;11.22;53.87;94390.41;5083424;28;20095;-79
2022/05/10 04:21:26;;;;;;;12.15;4.20;;;;;;;11.29;53.58;94392.66;5082824;28;20024;-79
2022/05/10 04:23:52;;;;;;;7.18;4.45;;;;;;;11.33;53.91;94396.28;5065269;28;20213;-79
2022/05/10 04:26:19;;;;;;;9.13;3.20;;;;;;;11.39;54.63;94393.19;5083113;28;20083;-79
2022/05/10 04:28:44;;;;;;;11.75;3.97;;;;;;;11.43;54.88;94391.47;5082816;28;20048;-78
2022/05/10 04:31:11;;;;;;;13.85;4.88;;;;;;;11.50;54.38;94390.25;5083181;28;20031;-78
2022/05/10 04:33:37;;;;;;;6.88;3.60;;;;;;;11.56;53.37;94399.72;5082601;28;20021;-78
2022/05/10 04:36:03;;;;;;;10.27;3.67;;;;;;;11.62;53.26;94398.50;5082777;28;20077;-79
2022/05/10 04:38:28;;;;;;;12.85;4.00;;;;;;;11.67;52.72;94387.69;5083023;28;20020;-79
2022/05/10 04:43:39;;;;;;;12.55;6.05;;;;;;;11.76;52.87;94395.75;5082795;28;20031;-79
2022/05/10 04:46:05;;;;;;;9.65;3.72;;;;;;;11.81;52.72;94399.06;5082597;28;20107;-79
2022/05/10 04:48:30;;;;;;;7.25;3.80;;;;;;;11.82;51.98;94398.00;5082770;28;20020;-79
2022/05/10 04:50:56;;;;;;;12.73;4.25;;;;;;;11.87;52.49;94399.75;5082850;28;20311;-78
2022/05/10 04:53:21;;;;;;;11.02;3.53;;;;;;;11.94;52.47;94402.78;5082837;28;20272;-78
2022/05/10 04:55:48;;;;;;;11.73;3.72;;;;;;;11.99;52.62;94404.53;5082702;28;20265;-77
2022/05/10 04:58:14;;;;;;;12.82;3.85;;;;;;;12.02;52.18;94409.25;5082700;28;20048;-77
2022/05/10 05:00:40;;;;;;;16.60;4.35;;;;;;;12.00;52.26;94408.78;5082714;28;20341;-77
2022/05/10 05:03:05;;;;;;;12.57;3.70;;;;;;;12.06;52.41;94412.09;5082539;28;20024;-78
2022/05/10 05:05:31;;;;;;;18.55;3.90;;;;;;;12.07;52.24;94414.47;5082604;28;20315;-78
2022/05/10 05:07:57;;;;;;;32.33;4.63;;;;;;;12.09;51.94;94417.63;5082848;28;20362;-78
2022/05/10 05:10:23;;;;;;;12.90;4.63;;;;;;;12.11;52.27;94420.78;5082570;28;20143;-78
2022/05/10 05:12:49;;;;;;;30.20;4.70;;;;;;;12.13;52.19;94425.78;5082611;28;20067;-78
2022/05/10 05:15:14;;;;;;;10.88;4.35;;;;;;;12.10;52.18;94413.84;5082596;28;20027;-77
2022/05/10 05:17:40;;;;;;;22.08;4.10;;;;;;;12.09;52.07;94420.28;5082264;28;20035;-79
2022/05/10 05:20:06;;;;;;;18.52;4.65;;;;;;;12.18;52.08;94414.97;5082771;28;20025;-79
2022/05/10 05:22:31;;;;;;;10.02;4.18;;;;;;;12.20;51.89;94410.88;5082452;28;20043;-78
2022/05/10 05:24:57;;;;;;;9.10;4.68;;;;;;;12.29;51.59;94410.91;5082545;28;20021;-78
2022/05/10 05:27:22;;;;;;;14.18;3.65;;;;;;;12.31;52.17;94410.59;5082461;28;20024;-77
2022/05/10 05:29:48;;;;;;;15.40;4.53;;;;;;;12.41;51.91;94407.66;5082037;28;20040;-80
2022/05/10 05:32:17;;;;;;;20.67;4.70;;;;;;;12.52;52.26;94405.50;5082017;28;20366;-80
2022/05/10 05:34:42;;;;;;;11.63;4.70;;;;;;;12.58;51.61;94409.59;5082413;28;20031;-80
2022/05/10 05:39:52;;;;;;;16.98;4.50;;;;;;;12.72;51.94;94406.75;5082054;28;20039;-78
2022/05/10 05:42:20;;;;;;;28.15;4.50;;;;;;;12.86;50.38;94410.09;5082173;28;20016;-84
2022/05/10 05:44:45;;;;;;;12.75;4.70;;;;;;;12.92;50.54;94406.16;5081885;28;20334;-72
2022/05/10 05:47:11;;;;;;;16.25;4.25;;;;;;;13.04;50.14;94392.16;5085760;28;20020;-82
2022/05/10 05:49:37;;;;;;;7.55;3.33;;;;;;;13.07;49.21;94399.56;5086310;28;20036;-87
2022/05/10 05:52:03;;;;;;;11.13;4.63;;;;;;;13.08;49.47;94392.31;5086580;28;20023;-75
2022/05/10 05:54:29;;;;;;;18.02;5.35;;;;;;;13.20;49.78;94398.59;5086572;28;20012;-86
2022/05/10 05:56:59;;;;;;;17.10;4.57;;;;;;;13.29;49.12;94400.47;5068307;28;20108;-81
2022/05/10 05:59:24;;;;;;;13.30;3.85;;;;;;;13.35;49.35;94394.69;5084554;28;20095;-80
2022/05/10 06:01:50;;;;;;;14.98;4.65;;;;;;;13.44;49.18;94394.69;5085785;28;20037;-81
2022/05/10 06:04:15;;;;;;;10.02;3.65;;;;;;;13.54;49.01;94404.28;5085005;28;20257;-80
2022/05/10 06:06:41;;;;;;;13.68;4.25;;;;;;;13.58;49.30;94392.59;5085643;28;20025;-80
2022/05/10 06:09:06;;;;;;;12.80;3.83;;;;;;;13.68;49.14;94398.72;5085732;28;20023;-80
2022/05/10 06:11:32;;;;;;;10.82;3.60;;;;;;;13.78;48.99;94401.06;5085211;28;20020;-80
2022/05/10 06:13:57;;;;;;;8.20;3.75;;;;;;;13.89;48.62;94396.16;5067496;28;20207;-80
2022/05/10 06:16:36;;;;;;;;;;;;;;;;;;;;;
2022/05/10 06:19:04;;;;;;;15.55;4.20;;;;;;;14.12;47.27;94404.72;5084013;28;20067;-81
2022/05/10 06:21:32;;;;;;;10.32;3.72;;;;;;;14.21;46.55;94400.91;5083894;28;20032;-81
2022/05/10 06:23:58;;;;;;;8.65;3.97;;;;;;;14.31;46.27;94398.97;5084020;28;20226;-80
2022/05/10 06:26:23;;;;;;;11.40;3.65;;;;;;;14.38;46.12;94396.56;5083893;28;20024;-80
2022/05/10 06:28:49;;;;;;;10.13;3.33;;;;;;;14.45;46.01;94404.91;5083785;28;20092;-81
2022/05/10 06:31:14;;;;;;;14.55;4.20;;;;;;;14.48;45.71;94398.88;5084740;28;20025;-81
2022/05/10 06:33:40;;;;;;;14.20;3.88;;;;;;;14.49;45.75;94397.78;5085210;28;20029;-81
2022/05/10 06:36:05;;;;;;;13.73;4.05;;;;;;;14.49;45.22;94396.97;5085294;28;20031;-80
2022/05/10 06:38:31;;;;;;;11.82;3.75;;;;;;;14.51;45.29;94408.16;5085254;28;20052;-81
2022/05/10 06:41:04;;;;;;;11.85;3.10;;;;;;;14.55;45.38;94404.53;5067214;28;20246;-80
2022/05/10 06:43:34;;;;;;;10.75;2.80;;;;;;;14.59;44.72;94400.13;5085023;28;20020;-80
2022/05/10 06:45:59;;;;;;;11.20;2.83;;;;;;;14.65;45.11;94398.03;5085177;28;20038;-80
2022/05/10 06:48:25;;;;;;;15.60;3.10;;;;;;;14.77;45.50;94402.69;5084949;28;20107;-81
2022/05/10 06:50:51;;;;;;;17.55;3.47;;;;;;;14.87;45.42;94396.16;5084423;28;20021;-80
2022/05/10 06:53:16;;;;;;;19.85;3.08;;;;;;;14.98;44.36;94411.56;5084642;28;20234;-80
2022/05/10 06:55:43;;;;;;;18.83;3.58;;;;;;;15.10;43.99;94401.97;5084680;28;20024;-80
2022/05/10 06:58:09;;;;;;;14.07;3.40;;;;;;;15.13;43.89;94401.34;5084644;28;20107;-80
2022/05/10 07:00:37;;;;;;;15.93;3.08;;;;;;;15.20;43.50;94406.94;5084712;28;20035;-80
2022/05/10 07:03:10;;;;;;;14.93;3.50;;;;;;;15.31;43.61;94399.28;5084521;28;20020;-80
2022/05/10 07:05:36;;;;;;;9.52;2.88;;;;;;;15.36;43.65;94394.47;5084550;28;20031;-81
2022/05/10 07:08:01;;;;;;;7.35;2.42;;;;;;;15.52;44.08;94402.72;5084753;28;20048;-80
2022/05/10 07:10:27;;;;;;;13.57;3.17;;;;;;;15.59;43.83;94397.59;5084396;28;20021;-80
2022/05/10 07:12:54;;;;;;;14.23;3.25;;;;;;;15.74;43.41;94393.53;5066714;28;20024;-80
2022/05/10 07:15:23;;;;;;;11.57;3.40;;;;;;;15.89;42.65;94399.38;5084218;28;20044;-79
2022/05/10 07:17:48;;;;;;;9.23;3.20;;;;;;;16.05;42.87;94403.00;5084362;28;20095;-80
2022/05/10 07:20:17;;;;;;;16.25;2.70;;;;;;;16.20;42.29;94399.66;5084222;28;20021;-80
2022/05/10 07:22:44;;;;;;;6.28;2.10;;;;;;;16.32;41.61;94398.84;5084257;28;20028;-79
2022/05/10 07:25:15;;;;;;;28.38;2.83;;;;;;;16.43;40.96;94394.63;5084027;28;20024;-80
2022/05/10 07:28:09;;;;;;;14.10;3.27;;;;;;;16.61;39.74;94383.63;5083951;28;20092;-81
2022/05/10 07:30:35;;;;;;;19.08;3.10;;;;;;;16.74;39.46;94393.25;5084051;28;20043;-81
2022/05/10 07:33:02;;;;;;;11.25;3.30;;;;;;;16.83;39.08;94391.25;5084043;28;20021;-81
2022/05/10 07:38:17;;;;;;;10.45;2.58;;;;;;;16.99;36.97;94396.69;5083883;28;20047;-81
2022/05/10 07:40:44;;;;;;;5.00;2.30;;;;;;;17.07;37.64;94394.22;5083419;28;20134;-82
2022/05/10 07:43:12;;;;;;;9.35;2.53;;;;;;;17.18;38.75;94387.25;5083800;28;20048;-83
2022/05/10 07:45:41;;;;;;;11.93;3.08;;;;;;;17.29;37.83;94390.22;5083462;28;20028;-82
2022/05/10 07:48:07;;;;;;;8.00;2.40;;;;;;;17.40;35.63;94389.41;5083191;28;20074;-82
2022/05/10 07:50:33;;;;;;;11.38;3.85;;;;;;;17.52;35.69;94391.25;5083727;28;20032;-82
2022/05/10 07:53:00;;;;;;;8.25;2.22;;;;;;;17.58;35.64;94395.25;5083588;28;20035;-83
2022/05/10 07:55:28;;;;;;;8.40;2.65;;;;;;;17.69;34.15;94390.19;5083619;28;20338;-83
2022/05/10 07:57:54;;;;;;;8.40;2.08;;;;;;;17.72;34.50;94392.16;5083717;28;20045;-82
2022/05/10 08:00:20;;;;;;;27.38;2.67;;;;;;;17.82;33.09;94397.06;5083648;28;20028;-84
2022/05/10 08:02:48;;;;;;;7.57;1.80;;;;;;;17.89;33.05;94387.59;5083650;28;20017;-83
2022/05/10 08:05:19;;;;;;;9.40;1.92;;;;;;;17.92;33.79;94386.94;5083251;28;20028;-83
2022/05/10 08:07:45;;;;;;;9.50;1.98;;;;;;;17.98;31.77;94388.25;5083335;28;20091;-83
2022/05/10 08:10:11;;;;;;;18.15;1.95;;;;;;;18.07;31.91;94386.16;5083084;28;20059;-80
2022/05/10 08:12:37;;;;;;;7.75;2.33;;;;;;;18.18;31.83;94381.03;5083004;28;20035;-80
2022/05/10 08:15:04;;;;;;;10.57;2.72;;;;;;;18.35;32.03;94393.38;5083477;28;20058;-81
2022/05/10 08:17:30;;;;;;;5.15;1.70;;;;;;;18.49;31.76;94380.22;5083374;28;20253;-81
2022/05/10 08:19:56;;;;;;;8.43;2.05;;;;;;;18.63;31.32;94388.66;5083094;28;20059;-80
2022/05/10 08:22:21;;;;;;;7.43;2.17;;;;;;;18.76;31.13;94381.22;5065330;28;20024;-80
2022/05/10 08:24:46;;;;;;;8.93;1.98;;;;;;;18.86;30.38;94379.91;5082722;28;20028;-79
2022/05/10 08:27:12;;;;;;;9.68;1.85;;;;;;;18.96;30.11;94375.88;5083129;28;20043;-83
2022/05/10 08:29:37;;;;;;;6.45;1.90;;;;;;;18.99;29.60;94378.66;5083219;28;20175;-80
2022/05/10 08:32:03;;;;;;;4.85;1.40;;;;;;;19.12;29.19;94371.22;5083171;28;20016;-81
2022/05/10 08:34:29;;;;;;;9.70;2.08;;;;;;;19.22;28.41;94375.28;5083079;28;20095;-83
2022/05/10 08:36:55;;;;;;;8.98;2.15;;;;;;;19.24;28.36;94376.47;5082974;28;20020;-80
2022/05/10 08:39:22;;;;;;;8.65;2.38;;;;;;;19.29;29.22;94375.41;5082981;28;20062;-79
2022/05/10 08:41:55;;;;;;;13.10;2.03;;;;;;;19.38;28.99;94378.69;5082707;28;20229;-77
2022/05/10 08:44:27;;;;;;;8.10;2.25;;;;;;;19.50;28.78;94375.06;5082902;28;20253;-78
2022/05/10 08:46:59;;;;;;;4.38;1.52;;;;;;;19.54;27.86;94377.81;5083100;28;20032;-82
2022/05/10 08:49:31;;;;;;;5.30;1.83;;;;;;;19.55;28.47;94376.69;5083385;28;20025;-84
2022/05/10 08:51:56;;;;;;;5.25;2.00;;;;;;;19.58;28.48;94365.13;5083287;28;20158;-83
2022/05/10 08:54:25;;;;;;;9.95;2.20;;;;;;;19.68;28.63;94367.25;5082972;28;20016;-79
2022/05/10 08:56:56;;;;;;;6.30;2.00;;;;;;;19.79;29.52;94362.88;5082576;28;20373;-81
2022/05/10 08:59:37;;;;;;;4.55;1.65;;;;;;;19.93;29.61;94365.06;5082549;28;20047;-80
2022/05/10 09:02:17;;;;;;;5.50;1.55;;;;;;;20.07;28.49;94364.53;5082747;28;20028;-80
2022/05/10 09:04:58;;;;;;;3.60;1.95;;;;;;;20.05;29.37;94358.69;5082586;28;20029;-81
2022/05/10 09:07:37;;;;;;;6.53;1.50;;;;;;;19.95;27.77;94368.19;5082332;28;20247;-80
2022/05/10 09:10:09;;;;;;;5.22;1.98;;;;;;;19.95;29.06;94353.88;5082884;28;20041;-80
2022/05/10 09:12:44;;;;;;;4.75;1.77;;;;;;;20.07;29.52;94358.31;5082976;28;20031;-80
2022/05/10 09:15:12;;;;;;;7.68;1.60;;;;;;;20.25;29.74;94359.38;5082575;28;20012;-80
2022/05/10 09:17:39;;;;;;;3.92;1.58;;;;;;;20.35;29.23;94361.50;5082462;28;20016;-79
2022/05/10 09:20:06;;;;;;;9.30;2.00;;;;;;;20.48;28.48;94356.66;5082806;28;20017;-81
2022/05/10 09:22:57;;;;;;;7.05;1.65;;;;;;;20.62;29.27;94356.91;5086632;28;20337;-80
2022/05/10 09:25:39;;;;;;;9.52;2.30;;;;;;;20.75;28.10;94359.41;5086386;28;20028;-80
2022/05/10 09:28:32;;;;;;;9.45;2.00;;;;;;;20.81;28.64;94356.00;5086788;28;20020;-81
2022/05/10 09:37:27;;;;;;;10.75;2.10;;;;;;;20.79;27.83;94341.25;5086195;28;20027;-80
2022/05/10 09:39:55;;;;;;;4.90;1.73;;;;;;;20.81;27.64;94347.88;5086241;28;20035;-80
2022/05/10 09:42:37;;;;;;;5.05;2.75;;;;;;;20.91;27.54;94337.56;5085656;28;20024;-81
2022/05/10 09:45:15;;;;;;;4.65;1.63;;;;;;;21.00;28.01;94333.44;5086422;28;20131;-81
2022/05/10 09:47:58;;;;;;;5.25;1.40;;;;;;;21.05;28.48;94332.31;5068195;28;20394;-80
2022/05/10 09:50:33;;;;;;;3.00;1.95;;;;;;;21.12;28.59;94334.34;5085851;28;20036;-80
2022/05/10 09:53:18;;;;;;;5.70;1.58;;;;;;;21.24;28.56;94328.66;5086010;28;20020;-80
2022/05/10 09:55:54;;;;;;;10.93;2.10;;;;;;;21.38;28.45;94338.91;5085858;28;20017;-83
2022/05/10 09:58:52;;;;;;;10.48;1.65;;;;;;;21.53;27.48;94329.78;5085690;28;20085;-81
2022/05/10 10:01:39;;;;;;;4.47;2.25;;;;;;;21.68;27.02;94322.59;5101730;28;20211;-81
2022/05/10 10:04:27;;;;;;;10.15;2.72;;;;;;;21.70;27.08;94320.28;5067763;28;20112;-81
2022/05/10 10:07:08;;;;;;;10.07;1.95;;;;;;;21.87;27.00;94318.91;5085974;28;20024;-82
2022/05/10 10:09:38;;;;;;;6.07;1.73;;;;;;;22.00;26.67;94316.69;5085950;28;20036;-83
2022/05/10 10:12:12;;;;;;;4.30;1.90;;;;;;;22.10;27.16;94309.78;5068221;28;20044;-84
2022/05/10 10:14:42;;;;;;;5.13;1.73;;;;;;;22.14;26.28;94311.38;5085624;28;20044;-80
2022/05/10 10:17:19;;;;;;;4.13;1.58;;;;;;;22.23;25.88;94308.34;5085595;28;20024;-82
2022/05/10 10:20:00;;;;;;;4.47;1.90;;;;;;;22.18;25.02;94295.88;5085552;28;20049;-79
2022/05/10 10:22:33;;;;;;;10.30;1.90;;;;;;;22.16;26.06;94298.19;5085623;28;20541;-85
2022/05/10 10:25:20;;;;;;;5.95;2.00;;;;;;;22.00;25.42;94298.47;5085358;28;20036;-82
2022/05/10 10:28:08;;;;;;;14.30;2.72;;;;;;;21.95;26.66;94290.66;5067424;28;20035;-86
2022/05/10 10:30:38;;;;;;;4.32;2.45;;;;;;;21.96;26.94;94288.72;5085292;28;20029;-81
2022/05/10 10:33:22;;;;;;;6.80;2.35;;;;;;;22.15;26.86;94285.03;5085091;28;20234;-83
2022/05/10 10:35:53;;;;;;;4.57;1.45;;;;;;;22.29;26.51;94289.78;5067133;28;20031;-81
2022/05/10 10:38:39;;;;;;;3.42;1.63;;;;;;;22.37;26.27;94291.41;5085286;28;20024;-85
2022/05/10 10:41:10;;;;;;;5.72;2.08;;;;;;;22.51;26.41;94290.72;5085144;28;20078;-84
2022/05/10 10:43:54;;;;;;;7.38;1.98;;;;;;;22.61;25.87;94284.56;5084845;28;20244;-84
2022/05/10 10:46:19;;;;;;;9.27;2.20;;;;;;;22.58;25.88;94282.63;5084814;28;20028;-86
2022/05/10 10:48:52;;;;;;;5.70;2.00;;;;;;;22.68;24.98;94279.19;5084817;28;20029;-83
2022/05/10 10:51:18;;;;;;;4.55;1.67;;;;;;;22.76;25.45;94271.84;5066851;28;20107;-81
2022/05/10 10:53:46;;;;;;;8.95;2.00;;;;;;;22.78;24.90;94269.53;5084693;28;20052;-81
2022/05/10 10:56:28;;;;;;;3.08;1.67;;;;;;;22.88;24.58;94270.72;5084694;28;20246;-82
2022/05/10 10:59:23;;;;;;;6.70;2.07;;;;;;;23.06;26.23;94271.63;5066651;28;20242;-81
2022/05/10 11:02:10;;;;;;;7.55;1.85;;;;;;;23.09;23.52;94270.84;5084639;28;20270;-82
2022/05/10 11:05:06;;;;;;;4.75;1.80;;;;;;;23.08;22.78;94263.06;5084889;28;20036;-82
2022/05/10 11:07:48;;;;;;;5.40;1.80;;;;;;;23.05;22.75;94266.56;5084589;28;20044;-85
2022/05/10 11:10:26;;;;;;;;;;;;;;;22.98;22.70;94270.03;5084883;28;20031;-82
2022/05/10 11:13:04;;;;;;;4.65;1.63;;;;;;;22.89;22.39;94261.44;5084778;28;19927;-81
2022/05/10 11:15:57;;;;;;;3.63;1.73;;;;;;;22.77;21.88;94243.50;5084435;28;20024;-81
2022/05/10 11:18:53;;;;;;;8.35;1.50;;;;;;;22.64;23.50;94241.13;5084170;28;20021;-82
2022/05/10 11:21:37;;;;;;;4.60;1.55;;;;;;;22.89;23.69;94245.13;5084225;28;20051;-81
2022/05/10 11:24:27;;;;;;;2.75;1.55;;;;;;;23.19;22.77;94242.16;5084450;28;20025;-84
2022/05/10 11:27:03;;;;;;;4.68;2.05;;;;;;;23.53;22.77;94233.66;5084193;28;20028;-80
2022/05/10 11:29:49;;;;;;;3.10;1.33;;;;;;;23.78;23.49;94231.78;5083867;28;20028;-81
2022/05/10 11:32:17;;;;;;;6.00;1.65;;;;;;;24.01;23.42;94228.66;5083816;28;20303;-79
2022/05/10 11:34:52;;;;;;;5.75;2.05;;;;;;;24.30;21.73;94225.13;5083780;28;20066;-79
2022/05/10 11:37:29;;;;;;;3.17;1.55;;;;;;;24.40;19.72;94218.88;5066053;28;20282;-80
2022/05/10 11:40:25;;;;;;;4.97;1.70;;;;;;;24.17;18.94;94222.03;5083724;28;20031;-79
2022/05/10 11:43:06;;;;;;;3.50;1.67;;;;;;;23.95;18.99;94216.59;5083045;28;20031;-81
2022/05/10 11:46:07;;;;;;;3.75;1.33;;;;;;;23.87;19.66;94209.59;5083850;28;20091;-80
2022/05/10 11:49:10;;;;;;;4.72;1.40;;;;;;;24.00;21.23;94207.28;5066288;28;20024;-83
2022/05/10 11:52:04;;;;;;;3.90;1.38;;;;;;;24.30;19.69;94195.97;5083979;28;20043;-82
2022/05/10 11:54:46;;;;;;;4.38;1.48;;;;;;;24.62;19.74;94192.38;5083928;28;20191;-84
2022/05/10 11:57:15;;;;;;;4.57;1.60;;;;;;;24.80;20.15;94195.81;5083721;28;20035;-80
2022/05/10 11:59:43;;;;;;;7.18;1.63;;;;;;;24.94;19.42;94192.25;5083362;28;20429;-82
2022/05/10 12:02:34;;;;;;;3.35;1.33;;;;;;;25.15;18.64;94190.59;5083778;28;20027;-79
2022/05/10 12:05:21;;;;;;;2.72;1.55;;;;;;;25.04;18.03;94185.19;5080331;28;20037;-82
2022/05/10 12:07:48;;;;;;;2.95;1.60;;;;;;;24.90;18.51;94182.53;5065500;28;20234;-83
2022/05/10 12:10:37;;;;;;;6.78;1.60;;;;;;;24.80;18.79;94175.97;5083493;28;20027;-84